Time;durP1;ratioP1;P1;durP2;ratioP2;P2;SDS_P1;SDS_P2;PMS_P1;PMS_P2;Temp;Humidity;BMP_temperature;BMP_pressure;BME280_temperature;BME280_humidity;BME280_pressure;Samples;Min_cycle;Max_cycle;Signal;HPM_P1;HPM_P2
2022/03/21 00:01:03;;;;;;;20.55;10.57;;;7.50;64.10;;;;;;5021593;28;20104;-71
2022/03/21 00:03:29;;;;;;;20.05;10.68;;;7.50;63.70;;;;;;5025729;28;20527;-71
2022/03/21 00:06:00;;;;;;;18.95;10.48;;;7.50;63.90;;;;;;5022753;28;20499;-71
2022/03/21 00:08:26;;;;;;;21.60;11.13;;;7.50;64.10;;;;;;5024369;28;20034;-71
2022/03/21 00:10:58;;;;;;;19.70;11.32;;;7.40;64.20;;;;;;5023611;28;20025;-71
2022/03/21 00:13:24;;;;;;;19.98;10.68;;;7.40;64.30;;;;;;5028029;28;20068;-71
2022/03/21 00:15:52;;;;;;;17.90;10.45;;;7.40;64.70;;;;;;5027482;28;20028;-71
2022/03/21 00:18:23;;;;;;;19.63;10.95;;;7.40;64.30;;;;;;5028134;28;20021;-71
2022/03/21 00:20:52;;;;;;;18.98;10.30;;;7.30;64.80;;;;;;5039842;28;20030;-71
2022/03/21 00:23:25;;;;;;;19.90;10.95;;;7.30;64.80;;;;;;5026782;28;20598;-71
2022/03/21 00:25:51;;;;;;;17.00;10.43;;;7.30;64.80;;;;;;5024542;28;20100;-71
2022/03/21 00:28:17;;;;;;;17.90;10.00;;;7.20;65.20;;;;;;5025086;28;20038;-71
2022/03/21 00:30:44;;;;;;;19.30;10.23;;;7.20;64.70;;;;;;5025412;28;20033;-71
2022/03/21 00:33:11;;;;;;;16.75;10.07;;;7.20;64.70;;;;;;5023194;28;20080;-71
2022/03/21 00:35:37;;;;;;;18.67;9.48;;;7.20;64.90;;;;;;5023682;28;20032;-71
2022/03/21 00:38:05;;;;;;;17.60;9.70;;;7.20;64.60;;;;;;5025853;28;20030;-70
2022/03/21 00:40:37;;;;;;;19.70;10.23;;;7.20;64.50;;;;;;5024045;28;20108;-71
2022/03/21 00:43:03;;;;;;;18.80;10.20;;;7.20;64.80;;;;;;5021324;28;20041;-71
2022/03/21 00:45:32;;;;;;;19.73;10.77;;;7.20;65.00;;;;;;5025174;28;20072;-71
2022/03/21 00:47:57;;;;;;;18.70;10.48;;;7.10;64.80;;;;;;5024667;28;20390;-71
2022/03/21 00:50:27;;;;;;;17.30;10.02;;;7.10;64.60;;;;;;5023722;28;20030;-70
2022/03/21 00:52:58;;;;;;;15.63;9.60;;;7.10;64.80;;;;;;5023153;28;20052;-70
2022/03/21 00:55:26;;;;;;;17.35;10.10;;;7.10;65.30;;;;;;5026041;28;20029;-70
2022/03/21 00:57:52;;;;;;;17.52;9.93;;;7.10;64.50;;;;;;5025397;28;20045;-71
2022/03/21 01:00:21;;;;;;;19.27;10.43;;;7.00;64.50;;;;;;5024155;28;20029;-71
2022/03/21 01:02:47;;;;;;;18.25;10.32;;;7.00;64.70;;;;;;5019835;28;20037;-70
2022/03/21 01:05:13;;;;;;;20.40;10.55;;;7.00;64.80;;;;;;5023648;28;20032;-71
2022/03/21 01:07:41;;;;;;;17.20;9.73;;;7.00;64.50;;;;;;5020545;28;20127;-70
2022/03/21 01:10:14;;;;;;;16.35;9.38;;;7.00;64.60;;;;;;5023834;28;20029;-71
2022/03/21 01:12:43;;;;;;;16.83;9.82;;;7.00;64.90;;;;;;5025003;28;20032;-70
2022/03/21 01:15:14;;;;;;;16.58;9.73;;;7.00;64.80;;;;;;5025959;28;20033;-70
2022/03/21 01:17:42;;;;;;;18.90;10.05;;;7.00;64.50;;;;;;5025223;28;20038;-71
2022/03/21 01:20:08;;;;;;;17.83;9.57;;;7.00;64.90;;;;;;5023059;28;20014;-71
2022/03/21 01:22:34;;;;;;;15.95;9.85;;;7.00;64.70;;;;;;5027140;28;20029;-71
2022/03/21 01:25:00;;;;;;;17.38;10.20;;;7.00;64.50;;;;;;5023039;28;20506;-71
2022/03/21 01:27:26;;;;;;;18.35;9.75;;;7.00;64.30;;;;;;5023015;28;20084;-71
2022/03/21 01:29:51;;;;;;;17.63;9.70;;;6.90;64.50;;;;;;5021204;28;20112;-71
2022/03/21 01:32:17;;;;;;;18.55;10.75;;;7.00;64.70;;;;;;5024272;28;20057;-70
2022/03/21 01:34:43;;;;;;;18.73;10.50;;;6.90;64.70;;;;;;5024094;28;20501;-71
2022/03/21 01:37:09;;;;;;;17.98;9.90;;;6.90;64.40;;;;;;5020628;28;20029;-71
2022/03/21 01:39:35;;;;;;;16.42;9.48;;;6.90;64.60;;;;;;5025003;28;20832;-71
2022/03/21 01:42:00;;;;;;;20.13;10.52;;;6.90;65.20;;;;;;5023084;28;20122;-71
2022/03/21 01:44:29;;;;;;;17.65;10.35;;;6.90;65.20;;;;;;5024344;28;20033;-70
2022/03/21 01:46:58;;;;;;;18.33;9.88;;;6.80;65.10;;;;;;5022795;28;20753;-70
2022/03/21 01:49:36;;;;;;;16.23;9.50;;;6.80;65.40;;;;;;5026638;28;20068;-71
2022/03/21 01:52:03;;;;;;;18.27;10.15;;;6.80;65.70;;;;;;5023407;28;20552;-70
2022/03/21 01:57:22;;;;;;;18.10;10.45;;;6.70;66.50;;;;;;5024282;28;20254;-71
2022/03/21 01:59:49;;;;;;;17.50;9.85;;;6.70;66.80;;;;;;5025549;28;20027;-71
2022/03/21 02:02:15;;;;;;;19.90;9.45;;;6.60;66.90;;;;;;5020934;28;20029;-72
2022/03/21 02:04:43;;;;;;;18.27;10.55;;;6.60;67.00;;;;;;5026124;28;20108;-72
2022/03/21 02:07:10;;;;;;;17.08;9.65;;;6.50;66.90;;;;;;5021966;28;20029;-72
2022/03/21 02:09:39;;;;;;;15.40;9.00;;;6.50;67.40;;;;;;5021993;28;20033;-72
2022/03/21 02:12:08;;;;;;;17.63;9.60;;;6.50;67.80;;;;;;5020584;28;20637;-71
2022/03/21 02:14:39;;;;;;;22.48;11.40;;;6.40;68.50;;;;;;5019168;28;20025;-72
2022/03/21 02:17:18;;;;;;;18.20;10.30;;;6.40;68.70;;;;;;5022224;28;20032;-72
2022/03/21 02:19:45;;;;;;;21.83;11.57;;;6.30;69.10;;;;;;5037460;28;20309;-72
2022/03/21 02:22:27;;;;;;;18.35;10.27;;;6.20;69.40;;;;;;5022453;28;20092;-72
2022/03/21 02:25:31;;;;;;;20.25;10.73;;;6.20;69.80;;;;;;5037714;28;20514;-72
2022/03/21 02:28:07;;;;;;;18.58;10.93;;;6.10;69.60;;;;;;5023353;28;20494;-72
2022/03/21 02:30:37;;;;;;;20.30;10.82;;;6.10;69.50;;;;;;5023702;28;20033;-71
2022/03/21 02:33:07;;;;;;;20.25;11.27;;;6.10;70.40;;;;;;5028997;28;20041;-71
2022/03/21 02:35:33;;;;;;;17.48;9.95;;;6.00;69.90;;;;;;5022873;28;20022;-71
2022/03/21 02:38:07;;;;;;;16.25;9.73;;;6.00;70.50;;;;;;5026351;28;20025;-71
2022/03/21 02:40:40;;;;;;;20.77;10.82;;;5.90;70.50;;;;;;5027266;28;20616;-71
2022/03/21 02:43:06;;;;;;;17.33;9.55;;;5.90;70.80;;;;;;5024423;28;20068;-73
2022/03/21 02:45:37;;;;;;;20.60;11.07;;;5.80;70.70;;;;;;5025456;28;20026;-71
2022/03/21 02:48:03;;;;;;;18.95;10.18;;;5.80;71.00;;;;;;5043505;28;20079;-71
2022/03/21 02:50:46;;;;;;;18.80;10.43;;;5.80;70.60;;;;;;5026720;28;20030;-72
2022/03/21 02:53:12;;;;;;;20.17;10.63;;;5.70;71.40;;;;;;5029103;28;20025;-71
2022/03/21 02:55:41;;;;;;;20.95;10.93;;;5.70;71.10;;;;;;5021254;28;20044;-71
2022/03/21 02:58:07;;;;;;;18.77;10.75;;;5.70;71.80;;;;;;5026017;28;20049;-71
2022/03/21 03:00:33;;;;;;;16.20;9.88;;;5.70;71.80;;;;;;5023296;28;20053;-72
2022/03/21 03:02:58;;;;;;;22.15;10.60;;;5.60;72.00;;;;;;5027799;28;20060;-71
2022/03/21 03:05:24;;;;;;;18.80;10.40;;;5.60;72.10;;;;;;5027158;28;20061;-72
2022/03/21 03:07:50;;;;;;;21.45;10.70;;;5.60;72.70;;;;;;5027621;28;20091;-71
2022/03/21 03:10:15;;;;;;;18.48;10.50;;;5.60;72.80;;;;;;5024742;28;20057;-72
2022/03/21 03:12:42;;;;;;;16.58;9.85;;;5.50;72.80;;;;;;5027073;28;20038;-73
2022/03/21 03:15:08;;;;;;;17.38;10.30;;;5.50;72.90;;;;;;5028163;28;20038;-71
2022/03/21 03:17:33;;;;;;;21.33;10.85;;;5.50;72.70;;;;;;5026422;28;20057;-71
2022/03/21 03:19:59;;;;;;;19.70;10.45;;;5.40;72.80;;;;;;5023446;28;20137;-70
2022/03/21 03:22:26;;;;;;;18.80;10.32;;;5.40;73.00;;;;;;5026150;28;20398;-71
2022/03/21 03:24:52;;;;;;;19.08;10.82;;;5.40;73.10;;;;;;5031528;28;20504;-70
2022/03/21 03:27:18;;;;;;;23.13;10.75;;;5.40;73.00;;;;;;5029963;28;20041;-71
2022/03/21 03:29:44;;;;;;;18.95;10.18;;;5.40;73.10;;;;;;5024872;28;20382;-72
2022/03/21 03:32:10;;;;;;;18.08;10.35;;;5.40;72.90;;;;;;5043867;28;20032;-71
2022/03/21 03:34:35;;;;;;;16.55;9.95;;;5.30;73.30;;;;;;5024928;28;20514;-71
2022/03/21 03:37:02;;;;;;;19.60;11.07;;;5.30;73.80;;;;;;5023050;28;20037;-71
2022/03/21 03:39:29;;;;;;;15.77;9.27;;;5.30;73.10;;;;;;5025737;28;20506;-71
2022/03/21 03:41:55;;;;;;;19.40;10.70;;;5.30;73.10;;;;;;5026696;28;20018;-71
2022/03/21 03:44:22;;;;;;;18.35;10.70;;;5.20;73.30;;;;;;5025852;28;20363;-71
2022/03/21 03:46:49;;;;;;;17.45;9.50;;;5.20;73.40;;;;;;5023686;28;20377;-71
2022/03/21 03:49:14;;;;;;;18.10;10.25;;;5.20;73.70;;;;;;5028033;28;20437;-71
2022/03/21 03:51:40;;;;;;;18.70;9.95;;;5.20;73.80;;;;;;5026970;28;20044;-70
2022/03/21 03:54:06;;;;;;;19.52;10.50;;;5.10;74.20;;;;;;5027043;28;20036;-71
2022/03/21 03:56:32;;;;;;;18.63;10.65;;;5.10;74.60;;;;;;5025732;28;20030;-71
2022/03/21 03:58:57;;;;;;;20.02;10.73;;;5.10;75.10;;;;;;5025504;28;20030;-71
2022/03/21 04:01:23;;;;;;;19.13;9.73;;;5.00;74.90;;;;;;5027326;28;20116;-71
2022/03/21 04:03:49;;;;;;;17.33;10.60;;;5.00;75.00;;;;;;5025506;28;20393;-71
2022/03/21 04:06:17;;;;;;;18.15;10.73;;;5.00;75.60;;;;;;5026874;28;20036;-71
2022/03/21 04:08:44;;;;;;;18.63;10.43;;;5.00;75.50;;;;;;5022509;28;20120;-71
2022/03/21 04:11:10;;;;;;;20.65;10.60;;;4.90;75.50;;;;;;5027443;28;20109;-71
2022/03/21 04:13:35;;;;;;;23.10;11.57;;;4.90;75.90;;;;;;5026768;28;20029;-71
2022/03/21 04:16:01;;;;;;;19.60;11.05;;;4.90;76.10;;;;;;5029742;28;20029;-71
2022/03/21 04:18:27;;;;;;;17.05;10.95;;;4.80;76.50;;;;;;5025675;28;20040;-71
2022/03/21 04:20:53;;;;;;;20.38;9.68;;;4.80;77.00;;;;;;5027900;28;20021;-71
2022/03/21 04:23:19;;;;;;;16.85;9.45;;;4.80;76.60;;;;;;5040997;28;20077;-71
2022/03/21 04:25:46;;;;;;;21.10;11.25;;;4.80;77.10;;;;;;5026800;28;20033;-71
2022/03/21 04:28:12;;;;;;;20.85;10.00;;;4.70;77.10;;;;;;5027181;28;20021;-70
2022/03/21 04:30:38;;;;;;;24.98;11.15;;;4.70;76.90;;;;;;5025033;28;20039;-71
2022/03/21 04:33:05;;;;;;;19.35;10.35;;;4.70;77.30;;;;;;5026467;28;20482;-71
2022/03/21 04:35:31;;;;;;;20.88;10.57;;;4.70;77.60;;;;;;5026207;28;20109;-71
2022/03/21 04:37:57;;;;;;;19.45;11.38;;;4.70;78.10;;;;;;5024635;28;20375;-71
2022/03/21 04:40:23;;;;;;;20.42;11.15;;;4.70;78.10;;;;;;5026425;28;20030;-71
2022/03/21 04:42:49;;;;;;;17.33;10.75;;;4.60;77.90;;;;;;5022816;28;20025;-71
2022/03/21 04:45:16;;;;;;;20.42;10.68;;;4.60;78.00;;;;;;5025309;28;20036;-70
2022/03/21 04:47:45;;;;;;;21.17;9.98;;;4.60;78.10;;;;;;5025667;28;20027;-71
2022/03/21 04:50:13;;;;;;;17.02;10.15;;;4.60;78.00;;;;;;5026938;28;20112;-72
2022/03/21 04:52:38;;;;;;;19.25;11.57;;;4.50;78.40;;;;;;5021901;28;20029;-73
2022/03/21 04:55:07;;;;;;;20.30;10.02;;;4.50;78.80;;;;;;5023094;28;20076;-72
2022/03/21 04:57:36;;;;;;;18.27;10.45;;;4.50;79.20;;;;;;5022262;28;20053;-72
2022/03/21 05:00:09;;;;;;;19.27;10.23;;;4.40;79.30;;;;;;5027012;28;20083;-71
2022/03/21 05:02:34;;;;;;;18.92;10.98;;;4.40;79.80;;;;;;5020296;28;20033;-72
2022/03/21 05:05:08;;;;;;;18.70;10.43;;;4.40;79.70;;;;;;5023943;28;20029;-72
2022/03/21 05:07:52;;;;;;;22.90;11.73;;;4.40;79.90;;;;;;5032317;28;20036;-71
2022/03/21 05:10:18;;;;;;;;;;;4.40;79.70;;;;;;5021608;28;20386;-71
2022/03/21 05:12:44;;;;;;;16.98;9.68;;;4.40;79.70;;;;;;5024782;28;19967;-72
2022/03/21 05:15:10;;;;;;;23.58;10.32;;;4.40;79.70;;;;;;5023948;28;20034;-72
2022/03/21 05:17:36;;;;;;;21.45;10.10;;;4.40;80.00;;;;;;5024751;28;20538;-73
2022/03/21 05:20:05;;;;;;;19.52;10.73;;;4.40;80.10;;;;;;5024263;28;20108;-72
2022/03/21 05:22:34;;;;;;;21.63;10.95;;;4.40;79.80;;;;;;5023611;28;20125;-72
2022/03/21 05:36:11;;;;;;;20.40;11.07;;;4.30;79.60;;;;;;5023466;28;20044;-71
2022/03/21 05:38:37;;;;;;;20.30;11.20;;;4.30;79.80;;;;;;5020976;28;20076;-71
2022/03/21 05:41:03;;;;;;;19.23;10.35;;;4.30;79.90;;;;;;5024465;28;20443;-71
2022/03/21 05:43:31;;;;;;;24.23;11.20;;;4.30;80.00;;;;;;5027046;28;20105;-71
2022/03/21 05:46:00;;;;;;;20.40;10.45;;;4.30;80.00;;;;;;5023678;28;20092;-72
2022/03/21 05:51:37;;;;;;;19.70;9.95;;;4.30;79.80;;;;;;5023940;28;20113;-71
2022/03/21 05:54:08;;;;;;;19.70;10.18;;;4.30;79.50;;;;;;5025387;28;20029;-71
2022/03/21 05:56:35;;;;;;;21.63;10.25;;;4.30;79.70;;;;;;5025300;28;20030;-71
2022/03/21 06:01:50;;;;;;;23.90;9.80;;;4.40;79.20;;;;;;5024601;28;20041;-71
2022/03/21 06:04:16;;;;;;;21.20;10.35;;;4.40;79.40;;;;;;5025387;28;20046;-71
2022/03/21 06:06:43;;;;;;;17.83;10.10;;;4.50;79.40;;;;;;5021452;28;20960;-71
2022/03/21 06:09:09;;;;;;;16.10;9.75;;;4.50;78.50;;;;;;5022776;28;20060;-72
2022/03/21 06:11:38;;;;;;;19.33;10.07;;;4.60;79.00;;;;;;5023730;28;20025;-72
2022/03/21 06:14:04;;;;;;;20.55;10.10;;;4.60;78.40;;;;;;5020218;28;20094;-72
2022/03/21 06:16:33;;;;;;;18.63;10.35;;;4.70;78.30;;;;;;5021687;28;20055;-72
2022/03/21 06:19:00;;;;;;;18.75;10.50;;;4.80;78.40;;;;;;5025139;28;20069;-72
2022/03/21 06:21:28;;;;;;;16.45;9.50;;;4.90;77.50;;;;;;5018717;28;20036;-70
2022/03/21 06:23:54;;;;;;;19.05;10.27;;;4.90;76.60;;;;;;5021858;28;20034;-71
2022/03/21 06:26:25;;;;;;;17.45;9.77;;;5.00;76.70;;;;;;5023236;28;20092;-71
2022/03/21 06:28:51;;;;;;;20.45;10.65;;;5.10;77.50;;;;;;5025949;28;20579;-72
2022/03/21 06:31:16;;;;;;;21.80;10.32;;;5.10;75.90;;;;;;5025148;28;20056;-71
2022/03/21 06:33:42;;;;;;;19.95;10.38;;;5.30;75.40;;;;;;5025913;28;20033;-71
2022/03/21 06:36:08;;;;;;;24.70;11.90;;;5.30;75.10;;;;;;5024388;28;20184;-73
2022/03/21 06:38:35;;;;;;;30.08;12.05;;;5.30;78.30;;;;;;5027069;28;20029;-71
2022/03/21 06:41:03;;;;;;;23.77;12.88;;;5.30;80.80;;;;;;5009980;28;20478;-71
2022/03/21 06:43:29;;;;;;;27.90;14.70;;;5.20;82.80;;;;;;5024391;28;21039;-72
2022/03/21 06:45:55;;;;;;;25.92;13.77;;;5.20;83.60;;;;;;5025108;28;20026;-71
2022/03/21 06:48:25;;;;;;;24.65;14.02;;;5.10;84.40;;;;;;5021757;28;20036;-70
2022/03/21 06:50:55;;;;;;;31.65;16.80;;;5.10;85.60;;;;;;5023045;28;20107;-72
2022/03/21 06:53:21;;;;;;;26.38;15.48;;;5.10;86.50;;;;;;5022402;28;20069;-71
2022/03/21 06:55:48;;;;;;;28.65;16.15;;;5.10;87.90;;;;;;5028128;28;20056;-71
2022/03/21 06:58:14;;;;;;;30.77;15.35;;;5.00;88.80;;;;;;5020538;28;25073;-70
2022/03/21 07:00:41;;;;;;;29.70;15.40;;;5.00;90.00;;;;;;5024076;28;20118;-70
2022/03/21 07:03:11;;;;;;;30.35;15.35;;;5.00;90.60;;;;;;5024159;28;20029;-72
2022/03/21 07:05:37;;;;;;;27.13;15.82;;;4.90;91.30;;;;;;5023093;28;20029;-71
2022/03/21 07:08:09;;;;;;;29.15;16.13;;;4.90;92.30;;;;;;5023262;28;20061;-72
2022/03/21 07:10:35;;;;;;;28.88;15.93;;;5.00;92.70;;;;;;5022214;28;20193;-73
2022/03/21 07:13:04;;;;;;;28.67;15.68;;;5.00;93.00;;;;;;5022185;28;20053;-73
2022/03/21 07:15:30;;;;;;;32.03;16.15;;;5.00;93.50;;;;;;5026126;28;20495;-72
2022/03/21 07:17:57;;;;;;;28.35;15.77;;;5.10;93.90;;;;;;5026918;28;20028;-71
2022/03/21 07:20:25;;;;;;;31.30;15.98;;;5.20;93.70;;;;;;5023669;28;20025;-71
2022/03/21 07:23:00;;;;;;;29.65;15.80;;;5.20;93.50;;;;;;5024083;28;20435;-71
2022/03/21 07:25:26;;;;;;;31.50;15.48;;;5.20;93.80;;;;;;5022392;28;20453;-71
2022/03/21 07:27:52;;;;;;;31.70;16.73;;;5.30;93.80;;;;;;5023834;28;20026;-71
2022/03/21 07:30:18;;;;;;;26.27;15.10;;;5.30;93.80;;;;;;5028747;28;20505;-70
2022/03/21 07:32:44;;;;;;;34.28;17.30;;;5.40;94.10;;;;;;5027487;28;20030;-71
2022/03/21 07:35:11;;;;;;;31.27;16.65;;;5.40;94.20;;;;;;5025975;28;20478;-71
2022/03/21 07:37:49;;;;;;;30.88;16.80;;;5.40;94.20;;;;;;5020507;28;20707;-70
2022/03/21 07:40:16;;;;;;;33.65;16.77;;;5.40;94.20;;;;;;5028061;28;20029;-70
2022/03/21 07:42:44;;;;;;;31.48;16.13;;;5.50;94.40;;;;;;5025755;28;20053;-71
2022/03/21 07:47:55;;;;;;;30.30;16.20;;;5.70;94.30;;;;;;5027032;28;20391;-70
2022/03/21 07:50:25;;;;;;;30.35;16.73;;;5.80;94.20;;;;;;5024152;28;20087;-70
2022/03/21 07:52:53;;;;;;;30.08;16.13;;;5.90;94.40;;;;;;5021339;28;20041;-70
2022/03/21 07:55:19;;;;;;;33.90;16.35;;;6.00;94.30;;;;;;5026722;28;20534;-69
2022/03/21 07:57:45;;;;;;;32.30;16.98;;;6.10;94.10;;;;;;5024335;28;20025;-70
2022/03/21 08:00:11;;;;;;;34.03;16.58;;;6.20;93.70;;;;;;5020477;28;20720;-70
2022/03/21 08:02:43;;;;;;;28.83;16.38;;;6.20;93.60;;;;;;5018072;28;20041;-70
2022/03/21 08:05:10;;;;;;;31.23;17.20;;;6.20;93.50;;;;;;5026388;28;20025;-71
2022/03/21 08:07:36;;;;;;;30.00;15.98;;;6.20;93.20;;;;;;5024120;28;20091;-71
2022/03/21 08:10:03;;;;;;;27.50;15.75;;;6.30;93.20;;;;;;5021699;28;20915;-71
2022/03/21 08:12:35;;;;;;;28.05;16.17;;;6.40;92.80;;;;;;5020645;28;20075;-71
2022/03/21 08:15:01;;;;;;;30.40;16.00;;;6.50;92.80;;;;;;5022875;28;20018;-71
2022/03/21 08:17:27;;;;;;;25.60;14.93;;;6.60;92.00;;;;;;5018519;28;20451;-71
2022/03/21 08:19:55;;;;;;;25.75;15.35;;;6.70;92.20;;;;;;5021871;28;20100;-71
2022/03/21 08:22:24;;;;;;;29.38;15.95;;;6.80;91.50;;;;;;5025531;28;20065;-72
2022/03/21 08:24:53;;;;;;;29.52;15.23;;;6.90;91.40;;;;;;5027693;28;20104;-71
2022/03/21 08:27:20;;;;;;;26.52;15.43;;;6.90;90.40;;;;;;5024332;28;20107;-72
2022/03/21 08:29:45;;;;;;;28.70;15.20;;;7.00;90.20;;;;;;5019880;28;20029;-72
2022/03/21 08:32:14;;;;;;;29.30;15.35;;;7.00;90.00;;;;;;5023969;28;20026;-71
2022/03/21 08:34:39;;;;;;;25.30;14.73;;;7.10;90.00;;;;;;5025670;28;20052;-72
2022/03/21 08:37:05;;;;;;;30.52;16.15;;;7.20;90.20;;;;;;5022992;28;20474;-72
2022/03/21 08:39:31;;;;;;;27.67;15.60;;;7.30;89.50;;;;;;5027119;28;20486;-71
2022/03/21 08:41:57;;;;;;;24.98;14.75;;;7.40;89.20;;;;;;5025358;28;20029;-72
2022/03/21 08:44:25;;;;;;;31.40;16.77;;;7.50;88.70;;;;;;5024707;28;20037;-72
2022/03/21 08:46:53;;;;;;;30.67;14.35;;;7.60;88.80;;;;;;5022729;28;20100;-73
2022/03/21 08:49:26;;;;;;;26.98;15.35;;;7.60;89.20;;;;;;5032772;28;24858;-74
2022/03/21 08:51:53;;;;;;;27.02;14.85;;;7.80;88.40;;;;;;5022965;28;20029;-74
2022/03/21 08:54:24;;;;;;;27.25;15.40;;;7.90;87.50;;;;;;5023016;28;20041;-74
2022/03/21 08:56:50;;;;;;;27.75;15.30;;;8.00;87.30;;;;;;5038747;28;20492;-74
2022/03/21 08:59:16;;;;;;;28.92;15.30;;;8.10;86.30;;;;;;5025248;28;20117;-74
2022/03/21 09:01:45;;;;;;;24.58;13.88;;;8.20;85.10;;;;;;5024327;28;20516;-73
2022/03/21 09:04:16;;;;;;;30.30;15.27;;;8.30;84.50;;;;;;5021353;28;20398;-72
2022/03/21 09:06:42;;;;;;;25.77;14.85;;;8.30;83.10;;;;;;5024783;28;20030;-72
2022/03/21 09:09:08;;;;;;;26.70;14.93;;;8.40;81.80;;;;;;5026507;28;20037;-72
2022/03/21 09:11:34;;;;;;;24.35;14.43;;;8.40;81.90;;;;;;5026421;28;20048;-72
2022/03/21 09:14:00;;;;;;;25.27;14.00;;;8.50;82.90;;;;;;5039330;28;20478;-72
2022/03/21 09:16:38;;;;;;;30.02;15.00;;;8.50;82.20;;;;;;5019085;28;20037;-73
2022/03/21 09:19:03;;;;;;;26.48;14.40;;;8.60;82.20;;;;;;5035822;28;20368;-72
2022/03/21 09:21:30;;;;;;;24.25;15.45;;;8.60;81.50;;;;;;5021823;28;20120;-75
2022/03/21 09:23:56;;;;;;;25.98;15.93;;;8.70;81.90;;;;;;5024107;28;20398;-72
2022/03/21 09:26:22;;;;;;;29.15;14.65;;;8.90;81.60;;;;;;5030118;28;20036;-73
2022/03/21 09:28:49;;;;;;;27.67;15.48;;;9.00;80.90;;;;;;5025235;28;20032;-75
2022/03/21 09:31:15;;;;;;;26.40;14.20;;;9.10;79.90;;;;;;5022126;28;20358;-74
2022/03/21 09:33:42;;;;;;;25.67;14.82;;;9.20;77.10;;;;;;5024230;28;20029;-71
2022/03/21 09:36:08;;;;;;;27.50;15.07;;;9.30;77.60;;;;;;5022544;28;20033;-73
2022/03/21 09:38:36;;;;;;;28.17;15.88;;;9.40;77.90;;;;;;5022241;28;20030;-72
2022/03/21 09:41:03;;;;;;;22.67;14.10;;;9.50;76.50;;;;;;5023928;28;20095;-73
2022/03/21 09:43:30;;;;;;;28.67;14.88;;;9.50;75.70;;;;;;5024029;28;20178;-71
2022/03/21 09:45:57;;;;;;;26.63;14.60;;;9.60;75.20;;;;;;5023921;28;20108;-71
2022/03/21 09:48:26;;;;;;;25.25;14.48;;;9.70;73.70;;;;;;5019418;28;20467;-73
2022/03/21 09:50:52;;;;;;;26.40;15.13;;;9.80;74.30;;;;;;5024586;28;20337;-73
2022/03/21 09:53:21;;;;;;;22.05;14.48;;;9.90;73.40;;;;;;5024782;28;20479;-71
2022/03/21 09:55:48;;;;;;;20.58;13.02;;;9.90;71.80;;;;;;5025859;28;20154;-74
2022/03/21 09:58:13;;;;;;;25.20;13.43;;;9.90;71.20;;;;;;5027670;28;20025;-75
2022/03/21 10:00:42;;;;;;;22.38;13.35;;;10.00;71.80;;;;;;5023269;28;20028;-75
2022/03/21 10:03:13;;;;;;;24.58;14.00;;;10.00;71.90;;;;;;5019702;28;20144;-74
2022/03/21 10:05:45;;;;;;;23.48;13.60;;;10.10;71.70;;;;;;5021946;28;20124;-75
2022/03/21 10:08:10;;;;;;;24.38;13.82;;;10.20;70.80;;;;;;5019623;28;20030;-73
2022/03/21 10:10:36;;;;;;;24.58;13.40;;;10.30;71.20;;;;;;5022615;28;20025;-75
2022/03/21 10:13:03;;;;;;;26.10;15.02;;;10.50;71.00;;;;;;5025568;28;20396;-75
2022/03/21 10:15:41;;;;;;;25.80;14.82;;;10.70;70.30;;;;;;5023047;28;20029;-73
2022/03/21 10:18:07;;;;;;;25.58;13.30;;;10.80;70.00;;;;;;5025905;28;20045;-73
2022/03/21 10:20:40;;;;;;;29.88;14.68;;;11.10;68.80;;;;;;5026344;28;20523;-75
2022/03/21 10:23:16;;;;;;;27.55;15.40;;;11.30;68.10;;;;;;5024162;28;20108;-75
2022/03/21 10:25:43;;;;;;;27.88;15.38;;;11.40;67.00;;;;;;5023501;28;20026;-75
2022/03/21 10:28:08;;;;;;;27.70;15.93;;;11.60;67.00;;;;;;5023845;28;20018;-75
2022/03/21 10:30:43;;;;;;;28.33;15.57;;;11.60;66.50;;;;;;5024051;28;20389;-75
2022/03/21 10:33:22;;;;;;;29.85;16.33;;;11.70;66.30;;;;;;5022931;28;20021;-75
2022/03/21 10:35:48;;;;;;;25.10;14.70;;;11.80;65.90;;;;;;5026599;28;20037;-75
2022/03/21 10:38:35;;;;;;;26.05;15.20;;;11.90;66.00;;;;;;5025679;28;20097;-74
2022/03/21 10:41:09;;;;;;;28.88;15.45;;;12.00;66.00;;;;;;5025033;28;20482;-74
2022/03/21 10:43:54;;;;;;;27.23;15.02;;;12.10;65.90;;;;;;5024050;28;20032;-74
2022/03/21 10:46:22;;;;;;;26.38;14.10;;;12.30;65.80;;;;;;5025709;28;20065;-75
2022/03/21 10:49:00;;;;;;;25.58;15.20;;;12.30;65.30;;;;;;5023385;28;20025;-72
2022/03/21 10:51:26;;;;;;;25.20;14.32;;;12.40;65.00;;;;;;5025745;28;20026;-74
2022/03/21 10:53:58;;;;;;;30.10;16.08;;;12.40;65.00;;;;;;5023254;28;20113;-77
2022/03/21 10:56:39;;;;;;;26.20;14.90;;;12.50;64.30;;;;;;5022899;28;20030;-74
2022/03/21 10:59:05;;;;;;;25.60;14.90;;;12.50;62.90;;;;;;5025205;28;20021;-71
2022/03/21 11:01:34;;;;;;;23.73;14.35;;;12.60;61.40;;;;;;5027659;28;20037;-72
2022/03/21 11:04:04;;;;;;;24.38;13.60;;;12.60;60.40;;;;;;5027329;28;20044;-72
2022/03/21 11:06:30;;;;;;;27.65;13.90;;;12.60;59.80;;;;;;5026603;28;20103;-73
2022/03/21 11:08:55;;;;;;;26.90;15.48;;;12.70;60.80;;;;;;5027103;28;20061;-73
2022/03/21 11:11:22;;;;;;;27.88;13.50;;;12.80;60.00;;;;;;5023950;28;20025;-72
2022/03/21 11:13:50;;;;;;;23.48;14.32;;;12.90;59.90;;;;;;5026783;28;20038;-73
2022/03/21 11:16:19;;;;;;;25.42;15.10;;;13.00;60.80;;;;;;5027859;28;20022;-74
2022/03/21 11:18:51;;;;;;;25.25;15.02;;;13.10;61.70;;;;;;5030264;28;20025;-74
2022/03/21 11:21:25;;;;;;;25.65;14.93;;;13.20;62.00;;;;;;5025760;28;20477;-73
2022/03/21 11:23:51;;;;;;;22.58;13.82;;;13.30;61.80;;;;;;5027835;28;20022;-73
2022/03/21 11:26:33;;;;;;;26.88;14.57;;;13.50;61.40;;;;;;5026492;28;20072;-74
2022/03/21 11:29:36;;;;;;;30.33;15.20;;;13.60;60.20;;;;;;5026605;28;20033;-75
2022/03/21 11:32:30;;;;;;;23.63;13.95;;;13.60;60.40;;;;;;5043761;28;20622;-75
2022/03/21 11:35:17;;;;;;;21.80;14.05;;;13.60;59.80;;;;;;5046699;28;20041;-75
2022/03/21 11:37:44;;;;;;;26.17;14.80;;;13.70;59.30;;;;;;5027628;28;20029;-75
2022/03/21 11:40:32;;;;;;;29.00;14.90;;;13.70;58.60;;;;;;5044563;28;20075;-75
2022/03/21 11:43:21;;;;;;;22.75;12.75;;;13.80;58.30;;;;;;5024638;28;20472;-75
2022/03/21 11:45:57;;;;;;;22.48;13.98;;;13.90;57.10;;;;;;5027749;28;20382;-74
2022/03/21 11:48:23;;;;;;;22.25;13.50;;;13.90;55.90;;;;;;5028818;28;20024;-73
2022/03/21 11:50:55;;;;;;;25.60;13.70;;;13.90;56.00;;;;;;5026608;28;20017;-73
2022/03/21 11:53:29;;;;;;;21.60;13.23;;;13.90;56.30;;;;;;5026520;28;20033;-72
2022/03/21 11:55:55;;;;;;;;;;;14.00;56.50;;;;;;5025965;28;20018;-72
2022/03/21 11:58:39;;;;;;;23.58;14.48;;;14.10;57.60;;;;;;5042489;28;19909;-73
2022/03/21 12:01:31;;;;;;;22.08;13.60;;;14.10;57.70;;;;;;5025599;28;20032;-72
2022/03/21 12:04:35;;;;;;;26.63;13.45;;;14.10;57.40;;;;;;5023445;28;20057;-73
2022/03/21 12:07:20;;;;;;;21.85;12.40;;;14.10;56.10;;;;;;5026487;28;20461;-73
2022/03/21 12:09:50;;;;;;;22.00;12.45;;;14.30;55.30;;;;;;5026713;28;20044;-72
2022/03/21 12:12:17;;;;;;;23.80;11.98;;;14.30;55.00;;;;;;5025894;28;20136;-72
2022/03/21 12:14:54;;;;;;;20.13;12.13;;;14.30;54.70;;;;;;5025982;28;20060;-72
2022/03/21 12:17:23;;;;;;;24.10;12.35;;;14.40;54.30;;;;;;5026023;28;20493;-73
2022/03/21 12:19:55;;;;;;;21.63;12.55;;;14.40;53.80;;;;;;5027749;28;20417;-73
2022/03/21 12:25:07;;;;;;;18.63;11.82;;;14.50;53.30;;;;;;5023227;28;20581;-72
2022/03/21 12:27:45;;;;;;;21.13;10.70;;;14.50;52.10;;;;;;5027892;28;20478;-72
2022/03/21 12:30:27;;;;;;;23.33;11.00;;;14.60;52.80;;;;;;5025016;28;20025;-72
2022/03/21 12:33:14;;;;;;;17.35;10.68;;;14.60;52.60;;;;;;5027174;28;20028;-71
2022/03/21 12:35:42;;;;;;;20.85;11.68;;;14.60;52.60;;;;;;5027873;28;20029;-72
2022/03/21 12:38:21;;;;;;;25.98;11.35;;;14.60;52.40;;;;;;5021757;28;20083;-73
2022/03/21 12:40:46;;;;;;;22.85;11.68;;;14.50;52.00;;;;;;5027612;28;20387;-71
2022/03/21 12:43:15;;;;;;;23.48;10.30;;;14.60;51.90;;;;;;5026704;28;20028;-71
2022/03/21 12:45:45;;;;;;;20.50;11.10;;;14.60;52.00;;;;;;5027904;28;20052;-71
2022/03/21 12:48:13;;;;;;;21.48;10.48;;;14.60;51.90;;;;;;4992945;28;20037;-72
2022/03/21 12:50:42;;;;;;;20.42;10.55;;;14.60;52.30;;;;;;5029921;28;20129;-71
2022/03/21 12:53:10;;;;;;;20.42;12.20;;;14.60;52.00;;;;;;5031475;28;20103;-71
2022/03/21 12:55:37;;;;;;;22.45;11.52;;;14.70;51.90;;;;;;5022015;28;20033;-71
2022/03/21 12:58:14;;;;;;;20.60;11.50;;;14.70;52.00;;;;;;5023444;28;20410;-74
2022/03/21 13:00:46;;;;;;;26.10;12.43;;;14.80;52.20;;;;;;5024966;28;20025;-74
2022/03/21 13:03:13;;;;;;;24.00;11.60;;;14.80;51.70;;;;;;5022830;28;20092;-73
2022/03/21 13:11:40;;;;;;;23.27;11.20;;;14.90;50.20;;;;;;5028020;28;20028;-75
2022/03/21 13:14:14;;;;;;;22.00;10.07;;;15.00;50.60;;;;;;5026609;28;20021;-78
2022/03/21 13:17:10;;;;;;;20.75;11.20;;;15.00;50.60;;;;;;5026878;28;20401;-75